Time;durP1;ratioP1;P1;durP2;ratioP2;P2;SDS_P1;SDS_P2;PMS_P1;PMS_P2;Temp;Humidity;BMP_temperature;BMP_pressure;BME280_temperature;BME280_humidity;BME280_pressure;Samples;Min_cycle;Max_cycle;Signal;HPM_P1;HPM_P2
2023/12/02 00:01:46;;;;;;;43.58;19.95;;;-1.20;99.90;;;;;;5073083;28;20028;-71
2023/12/02 00:04:12;;;;;;;42.58;19.17;;;-1.20;98.60;;;;;;5072929;28;20042;-72
2023/12/02 00:06:37;;;;;;;40.95;19.90;;;-1.20;99.90;;;;;;5073184;28;20363;-72
2023/12/02 00:09:03;;;;;;;40.92;18.60;;;-1.20;99.90;;;;;;5073126;28;20032;-71
2023/12/02 00:11:28;;;;;;;43.08;18.55;;;-1.10;99.90;;;;;;5073077;28;20029;-71
2023/12/02 00:13:54;;;;;;;39.85;18.40;;;-1.20;99.90;;;;;;5073104;28;20032;-71
2023/12/02 00:16:19;;;;;;;46.35;20.15;;;-1.10;97.10;;;;;;5073002;28;20423;-71
2023/12/02 00:18:45;;;;;;;41.00;19.55;;;-1.10;94.40;;;;;;5072926;28;20064;-71
2023/12/02 00:21:10;;;;;;;43.58;19.88;;;-1.10;94.90;;;;;;5072958;28;20389;-71
2023/12/02 00:23:36;;;;;;;44.95;20.42;;;-1.10;94.50;;;;;;5072412;28;20485;-71
2023/12/02 00:26:02;;;;;;;46.92;20.83;;;-1.10;90.20;;;;;;5072877;28;20444;-71
2023/12/02 00:28:27;;;;;;;43.97;19.73;;;-1.10;87.20;;;;;;5072902;28;20119;-71
2023/12/02 00:30:53;;;;;;;46.00;19.63;;;-1.20;92.30;;;;;;5072570;28;20028;-71
2023/12/02 00:33:18;;;;;;;46.20;20.10;;;-1.20;92.20;;;;;;5072794;28;20032;-71
2023/12/02 00:35:44;;;;;;;47.30;19.45;;;-1.20;83.40;;;;;;5072706;28;20029;-71
2023/12/02 00:38:09;;;;;;;44.15;20.02;;;-1.20;86.30;;;;;;5072839;28;20036;-71
2023/12/02 00:40:35;;;;;;;46.53;20.60;;;-1.20;90.00;;;;;;5072803;28;20607;-72
2023/12/02 00:43:00;;;;;;;48.13;19.02;;;-1.20;92.40;;;;;;5072516;28;20567;-71
2023/12/02 00:45:26;;;;;;;43.95;19.42;;;-1.20;95.10;;;;;;5073005;28;20115;-71
2023/12/02 00:47:51;;;;;;;45.33;20.13;;;-1.20;94.60;;;;;;5073043;28;20033;-71
2023/12/02 00:50:17;;;;;;;48.80;19.98;;;-1.20;96.40;;;;;;5073416;28;20028;-71
2023/12/02 00:52:42;;;;;;;45.42;19.67;;;-1.20;92.60;;;;;;5076257;28;20037;-72
2023/12/02 00:55:08;;;;;;;42.97;19.10;;;-1.20;92.30;;;;;;5076207;28;20025;-71
2023/12/02 00:57:34;;;;;;;46.70;19.23;;;-1.20;87.30;;;;;;5076237;28;20043;-71
2023/12/02 00:59:59;;;;;;;43.03;18.40;;;-1.20;87.80;;;;;;5076341;28;20131;-71
2023/12/02 01:02:25;;;;;;;47.55;19.85;;;-1.20;83.20;;;;;;5075690;28;20529;-71
2023/12/02 01:04:50;;;;;;;46.65;19.60;;;-1.30;80.90;;;;;;5075588;28;20390;-71
2023/12/02 01:07:16;;;;;;;46.00;19.42;;;-1.30;87.50;;;;;;5076078;28;20120;-71
2023/12/02 01:09:41;;;;;;;46.83;19.73;;;-1.30;77.10;;;;;;5075986;28;20021;-71
2023/12/02 01:12:07;;;;;;;41.63;18.60;;;-1.30;69.20;;;;;;5076002;28;20021;-71
2023/12/02 01:14:33;;;;;;;43.25;20.25;;;-1.30;72.30;;;;;;5075510;28;20036;-71
2023/12/02 01:16:58;;;;;;;51.20;20.30;;;-1.40;78.50;;;;;;5075480;28;20108;-72
2023/12/02 01:19:24;;;;;;;46.58;20.30;;;-1.30;81.70;;;;;;5075919;28;20032;-71
2023/12/02 01:21:49;;;;;;;43.05;18.17;;;-1.30;79.80;;;;;;5075794;28;20107;-71
2023/12/02 01:24:16;;;;;;;42.67;18.27;;;-1.30;78.50;;;;;;5075297;28;20075;-71
2023/12/02 01:26:42;;;;;;;41.65;18.05;;;-1.30;80.00;;;;;;5075738;28;20069;-72
2023/12/02 01:29:08;;;;;;;40.05;18.17;;;-1.30;76.70;;;;;;5075707;28;20024;-71
2023/12/02 01:31:33;;;;;;;43.08;18.25;;;-1.40;80.00;;;;;;5075515;28;20036;-72
2023/12/02 01:33:59;;;;;;;40.00;17.98;;;-1.30;76.90;;;;;;5075712;28;20025;-71
2023/12/02 01:36:24;;;;;;;39.85;16.90;;;-1.30;72.40;;;;;;5075725;28;20415;-71
2023/12/02 01:38:50;;;;;;;42.65;17.67;;;-1.40;80.10;;;;;;5075508;28;20367;-71
2023/12/02 01:41:15;;;;;;;42.28;17.70;;;-1.40;85.20;;;;;;5075713;28;20074;-71
2023/12/02 01:43:41;;;;;;;40.38;17.85;;;-1.40;86.60;;;;;;5074977;28;20391;-71
2023/12/02 01:46:06;;;;;;;42.60;18.35;;;-1.40;87.60;;;;;;5074965;28;20028;-71
2023/12/02 01:48:34;;;;;;;42.80;17.00;;;-1.40;86.40;;;;;;5075319;28;20040;-71
2023/12/02 01:51:00;;;;;;;42.03;17.08;;;-1.40;86.10;;;;;;5075314;28;20025;-71
2023/12/02 01:53:25;;;;;;;42.67;18.25;;;-1.50;90.40;;;;;;5075266;28;20505;-72
2023/12/02 01:55:52;;;;;;;40.70;17.70;;;-1.50;90.30;;;;;;5074628;28;20028;-71
2023/12/02 01:58:19;;;;;;;38.90;17.40;;;-1.40;93.40;;;;;;5074962;28;20044;-71
2023/12/02 02:00:44;;;;;;;39.15;17.52;;;-1.40;92.20;;;;;;5074975;28;20020;-72
2023/12/02 02:03:10;;;;;;;37.55;16.77;;;-1.40;82.10;;;;;;5074793;28;20394;-71
2023/12/02 02:05:36;;;;;;;43.40;18.60;;;-1.40;85.70;;;;;;5075052;28;20029;-71
2023/12/02 02:08:01;;;;;;;36.85;16.27;;;-1.40;83.80;;;;;;5074797;28;20386;-71
2023/12/02 02:10:27;;;;;;;38.55;16.65;;;-1.40;86.30;;;;;;5074444;28;20032;-71
2023/12/02 02:12:52;;;;;;;34.00;16.25;;;-1.40;87.00;;;;;;5074796;28;20064;-71
2023/12/02 02:15:18;;;;;;;34.85;15.60;;;-1.50;87.60;;;;;;5074725;28;20040;-71
2023/12/02 02:17:43;;;;;;;40.25;17.63;;;-1.50;89.50;;;;;;5074765;28;20032;-71
2023/12/02 02:20:10;;;;;;;38.97;16.80;;;-1.50;86.20;;;;;;5074611;28;20545;-71
2023/12/02 02:22:35;;;;;;;37.90;17.70;;;-1.50;88.90;;;;;;5074446;28;20032;-71
2023/12/02 02:25:01;;;;;;;38.65;16.40;;;-1.50;90.30;;;;;;5074630;28;20032;-71
2023/12/02 02:27:26;;;;;;;34.72;15.13;;;-1.50;92.80;;;;;;5074571;28;20389;-71
2023/12/02 02:29:52;;;;;;;35.95;15.82;;;-1.50;90.90;;;;;;5074394;28;20031;-71
2023/12/02 02:32:17;;;;;;;37.03;16.45;;;-1.50;90.30;;;;;;5074354;28;20024;-71
2023/12/02 02:34:43;;;;;;;37.00;16.23;;;-1.50;93.20;;;;;;5074303;28;20057;-71
2023/12/02 02:37:09;;;;;;;36.83;16.77;;;-1.50;95.40;;;;;;5074365;28;20036;-71
2023/12/02 02:39:34;;;;;;;37.47;16.15;;;-1.60;93.60;;;;;;5074404;28;20040;-71
2023/12/02 02:42:05;;;;;;;35.63;15.52;;;-1.50;92.70;;;;;;5073892;28;20501;-71
2023/12/02 02:44:32;;;;;;;34.72;16.05;;;-1.50;95.70;;;;;;5074003;28;20032;-71
2023/12/02 02:46:58;;;;;;;39.30;16.70;;;-1.50;95.90;;;;;;5074262;28;20025;-71
2023/12/02 02:49:24;;;;;;;37.40;15.95;;;-1.50;96.40;;;;;;5074160;28;20390;-71
2023/12/02 02:51:49;;;;;;;34.78;15.55;;;-1.50;94.00;;;;;;5073979;28;20446;-71
2023/12/02 02:54:15;;;;;;;36.97;16.38;;;-1.50;96.80;;;;;;5074051;28;20020;-71
2023/12/02 02:56:40;;;;;;;37.72;15.60;;;-1.50;96.90;;;;;;5074023;28;20040;-71
2023/12/02 02:59:06;;;;;;;34.08;15.18;;;-1.50;97.60;;;;;;5073977;28;20025;-71
2023/12/02 03:01:31;;;;;;;35.13;15.50;;;-1.50;94.00;;;;;;5073727;28;20028;-71
2023/12/02 03:03:57;;;;;;;35.65;15.57;;;-1.50;94.50;;;;;;5073706;28;20082;-71
2023/12/02 03:06:24;;;;;;;32.90;14.43;;;-1.50;93.30;;;;;;5073806;28;20037;-71
2023/12/02 03:08:50;;;;;;;31.67;14.77;;;-1.50;95.80;;;;;;5073760;28;20025;-71
2023/12/02 03:11:15;;;;;;;29.80;13.63;;;-1.50;96.00;;;;;;5073701;28;20482;-71
2023/12/02 03:13:41;;;;;;;32.40;14.02;;;-1.50;93.40;;;;;;5073302;28;20032;-71
2023/12/02 03:16:07;;;;;;;30.83;14.55;;;-1.50;95.10;;;;;;5073727;28;20028;-71
2023/12/02 03:18:32;;;;;;;30.40;14.15;;;-1.50;95.50;;;;;;5073655;28;20509;-71
2023/12/02 03:20:58;;;;;;;33.55;15.38;;;-1.50;97.20;;;;;;5073625;28;20029;-71
2023/12/02 03:23:23;;;;;;;29.55;14.40;;;-1.50;98.10;;;;;;5073385;28;20032;-71
2023/12/02 03:25:49;;;;;;;31.63;15.25;;;-1.50;98.50;;;;;;5073297;28;20017;-71
2023/12/02 03:28:14;;;;;;;33.05;15.43;;;-1.50;99.20;;;;;;5073541;28;20035;-71
2023/12/02 03:30:40;;;;;;;29.70;14.73;;;-1.50;97.40;;;;;;5073543;28;20024;-71
2023/12/02 03:33:06;;;;;;;31.35;14.80;;;-1.50;96.20;;;;;;5073440;28;20490;-71
2023/12/02 03:35:31;;;;;;;29.02;13.65;;;-1.50;97.90;;;;;;5073560;28;20032;-71
2023/12/02 03:37:57;;;;;;;32.85;15.45;;;-1.50;98.70;;;;;;5073534;28;20033;-71
2023/12/02 03:40:22;;;;;;;31.33;15.20;;;-1.50;99.50;;;;;;5073301;28;20414;-71
2023/12/02 03:42:48;;;;;;;33.80;15.13;;;-1.50;99.60;;;;;;5072883;28;20048;-71
2023/12/02 03:45:13;;;;;;;31.92;15.30;;;-1.60;99.30;;;;;;5073370;28;20036;-71
2023/12/02 03:47:39;;;;;;;31.65;15.38;;;-1.60;99.90;;;;;;5073335;28;20027;-71
2023/12/02 03:50:05;;;;;;;29.00;14.15;;;-1.60;99.90;;;;;;5073215;28;20051;-71
2023/12/02 03:52:30;;;;;;;29.30;13.68;;;-1.60;99.90;;;;;;5073299;28;20394;-71
2023/12/02 03:54:56;;;;;;;29.42;14.10;;;-1.60;99.90;;;;;;5073373;28;20028;-71
2023/12/02 03:57:21;;;;;;;30.77;14.90;;;-1.70;99.90;;;;;;5073525;28;20352;-71
2023/12/02 03:59:47;;;;;;;31.95;14.63;;;-1.60;99.90;;;;;;5073015;28;20024;-71
2023/12/02 04:02:12;;;;;;;30.08;14.05;;;-1.60;99.90;;;;;;5073229;28;20037;-71
2023/12/02 04:04:38;;;;;;;27.95;13.88;;;-1.60;97.00;;;;;;5072932;28;20114;-71
2023/12/02 04:07:04;;;;;;;27.70;13.32;;;-1.60;96.60;;;;;;5073228;28;20032;-71
2023/12/02 04:09:30;;;;;;;34.60;15.45;;;-1.60;99.00;;;;;;5073252;28;20025;-71
2023/12/02 04:11:55;;;;;;;29.20;14.63;;;-1.60;98.00;;;;;;5073109;28;20436;-71
2023/12/02 04:14:21;;;;;;;29.95;14.25;;;-1.60;98.80;;;;;;5072986;28;20082;-71
2023/12/02 04:16:46;;;;;;;28.88;14.27;;;-1.60;99.90;;;;;;5072974;28;20033;-71
2023/12/02 04:19:12;;;;;;;28.65;14.63;;;-1.60;99.90;;;;;;5072985;28;20151;-71
2023/12/02 04:21:42;;;;;;;32.17;14.40;;;-1.60;98.20;;;;;;5072831;28;20070;-71
2023/12/02 04:24:09;;;;;;;27.00;13.80;;;-1.70;96.60;;;;;;5072548;28;20175;-71
2023/12/02 04:26:35;;;;;;;31.73;14.98;;;-1.70;98.40;;;;;;5075697;28;20048;-71
2023/12/02 04:29:01;;;;;;;31.15;15.13;;;-1.70;99.70;;;;;;5076820;28;20031;-71
2023/12/02 04:31:27;;;;;;;31.05;14.60;;;-1.70;99.90;;;;;;5076427;28;20025;-71
2023/12/02 04:33:52;;;;;;;34.17;15.00;;;-1.60;99.90;;;;;;5076555;28;20055;-71
2023/12/02 04:36:18;;;;;;;34.25;15.23;;;-1.70;98.60;;;;;;5076562;28;20032;-71
2023/12/02 04:38:43;;;;;;;33.00;15.00;;;-1.70;99.90;;;;;;5076624;28;20028;-71
2023/12/02 04:41:09;;;;;;;29.35;14.60;;;-1.70;99.90;;;;;;5076574;28;20028;-71
2023/12/02 04:43:34;;;;;;;32.00;14.98;;;-1.70;99.90;;;;;;5075843;28;20045;-71
2023/12/02 04:46:00;;;;;;;32.05;15.13;;;-1.70;99.90;;;;;;5076608;28;20043;-71
2023/12/02 04:48:26;;;;;;;31.55;15.93;;;-1.70;99.90;;;;;;5076636;28;20024;-71
2023/12/02 04:50:51;;;;;;;35.33;15.15;;;-1.60;99.90;;;;;;5076372;28;20052;-71
2023/12/02 04:53:17;;;;;;;32.08;14.95;;;-1.60;99.60;;;;;;5076350;28;20033;-71
2023/12/02 04:55:42;;;;;;;33.00;16.63;;;-1.60;99.90;;;;;;5076241;28;20041;-71
2023/12/02 04:58:08;;;;;;;31.55;15.02;;;-1.70;99.90;;;;;;5076243;28;20033;-71
2023/12/02 05:00:33;;;;;;;31.83;15.43;;;-1.60;99.80;;;;;;5076220;28;20039;-71
2023/12/02 05:03:00;;;;;;;29.23;14.18;;;-1.60;99.90;;;;;;5075777;28;20398;-71
2023/12/02 05:05:26;;;;;;;28.40;14.38;;;-1.60;97.70;;;;;;5076171;28;20024;-71
2023/12/02 05:07:51;;;;;;;27.70;13.38;;;-1.60;99.90;;;;;;5075971;28;20156;-71
2023/12/02 05:10:17;;;;;;;31.17;15.35;;;-1.60;99.70;;;;;;5076000;28;20067;-71
2023/12/02 05:12:42;;;;;;;30.55;14.80;;;-1.60;99.70;;;;;;5076015;28;20032;-71
2023/12/02 05:15:09;;;;;;;30.42;15.15;;;-1.70;98.20;;;;;;5075968;28;20035;-71
2023/12/02 05:17:35;;;;;;;34.13;16.60;;;-1.70;99.90;;;;;;5075944;28;20487;-71
2023/12/02 05:20:01;;;;;;;28.88;14.00;;;-1.70;99.90;;;;;;5075971;28;20028;-71
2023/12/02 05:22:26;;;;;;;30.23;15.00;;;-1.70;99.90;;;;;;5075882;28;20381;-71
2023/12/02 05:24:52;;;;;;;32.50;15.10;;;-1.60;99.90;;;;;;5075417;28;20037;-71
2023/12/02 05:27:17;;;;;;;33.00;16.42;;;-1.60;99.90;;;;;;5075706;28;20032;-71
2023/12/02 05:29:43;;;;;;;34.25;15.00;;;-1.60;99.40;;;;;;5075615;28;20115;-71
2023/12/02 05:32:08;;;;;;;30.95;15.15;;;-1.60;99.10;;;;;;5075752;28;20036;-71
2023/12/02 05:34:34;;;;;;;29.83;14.48;;;-1.70;96.40;;;;;;5075682;28;20036;-71
2023/12/02 05:37:00;;;;;;;29.92;14.75;;;-1.70;98.00;;;;;;5075200;28;20029;-71
2023/12/02 05:39:25;;;;;;;32.80;15.13;;;-1.60;99.90;;;;;;5075481;28;20391;-71
2023/12/02 05:41:51;;;;;;;31.23;15.23;;;-1.60;99.90;;;;;;5075566;28;20070;-71
2023/12/02 05:44:16;;;;;;;34.03;14.73;;;-1.70;98.60;;;;;;5074871;28;20494;-72
2023/12/02 05:46:42;;;;;;;29.05;14.95;;;-1.70;97.90;;;;;;5074925;28;20119;-71
2023/12/02 05:49:08;;;;;;;27.35;13.93;;;-1.70;98.00;;;;;;5075397;28;20536;-71
2023/12/02 05:51:38;;;;;;;30.00;14.73;;;-1.60;99.40;;;;;;5075343;28;20028;-71
2023/12/02 05:54:06;;;;;;;29.67;14.57;;;-1.60;98.10;;;;;;5075244;28;20090;-70
2023/12/02 05:56:31;;;;;;;29.35;14.38;;;-1.60;95.60;;;;;;5075200;28;20082;-71
2023/12/02 05:58:57;;;;;;;31.42;15.68;;;-1.60;94.40;;;;;;5075480;28;20032;-71
2023/12/02 06:01:22;;;;;;;33.47;16.13;;;-1.60;95.20;;;;;;5074595;28;20032;-71
2023/12/02 06:03:49;;;;;;;34.53;15.73;;;-1.60;97.20;;;;;;5074836;28;20024;-71
2023/12/02 06:06:15;;;;;;;28.58;14.75;;;-1.60;99.10;;;;;;5074548;28;20027;-71
2023/12/02 06:08:40;;;;;;;30.80;15.45;;;-1.60;98.60;;;;;;5075002;28;20368;-71
2023/12/02 06:11:06;;;;;;;29.48;15.35;;;-1.70;98.00;;;;;;5074797;28;20402;-71
2023/12/02 06:13:31;;;;;;;31.10;15.55;;;-1.70;97.70;;;;;;5075012;28;20490;-71
2023/12/02 06:15:57;;;;;;;28.85;14.95;;;-1.70;98.00;;;;;;5074533;28;20059;-71
2023/12/02 06:18:22;;;;;;;29.00;14.25;;;-1.70;98.10;;;;;;5074343;28;20028;-71
2023/12/02 06:20:48;;;;;;;29.73;14.57;;;-1.60;97.60;;;;;;5074548;28;20028;-70
2023/12/02 06:23:14;;;;;;;30.98;15.18;;;-1.70;96.00;;;;;;5074344;28;20029;-71
2023/12/02 06:25:39;;;;;;;28.55;14.27;;;-1.70;94.10;;;;;;5074531;28;20035;-72
2023/12/02 06:28:05;;;;;;;30.80;14.27;;;-1.70;91.30;;;;;;5074520;28;20112;-71
2023/12/02 06:30:31;;;;;;;27.70;14.02;;;-1.70;88.50;;;;;;5074638;28;20548;-72
2023/12/02 06:32:57;;;;;;;28.88;14.30;;;-1.70;85.50;;;;;;5074376;28;20374;-72
2023/12/02 06:35:22;;;;;;;26.88;14.18;;;-1.70;88.30;;;;;;5074415;28;20086;-71
2023/12/02 06:37:48;;;;;;;27.52;13.85;;;-1.70;92.70;;;;;;5074358;28;20028;-71
2023/12/02 06:40:14;;;;;;;28.58;14.05;;;-1.70;92.60;;;;;;5074046;28;20580;-72
2023/12/02 06:42:39;;;;;;;28.80;14.73;;;-1.80;91.10;;;;;;5073884;28;20056;-71
2023/12/02 06:45:06;;;;;;;28.27;14.63;;;-1.80;88.00;;;;;;5074236;28;20028;-71
2023/12/02 06:47:31;;;;;;;30.02;14.57;;;-1.90;87.60;;;;;;5073613;28;20025;-71
2023/12/02 06:49:57;;;;;;;30.10;15.13;;;-1.90;87.20;;;;;;5073815;28;20016;-71
2023/12/02 06:52:22;;;;;;;26.55;14.00;;;-1.80;92.10;;;;;;5073997;28;20078;-71
2023/12/02 06:54:48;;;;;;;30.38;14.55;;;-1.90;95.40;;;;;;5073990;28;20028;-71
2023/12/02 06:57:13;;;;;;;29.98;15.27;;;-1.80;98.60;;;;;;5073862;28;20421;-71
2023/12/02 06:59:39;;;;;;;28.85;13.77;;;-1.90;99.50;;;;;;5073949;28;20031;-71
2023/12/02 07:02:04;;;;;;;31.30;15.30;;;-2.00;99.90;;;;;;5073870;28;20032;-71
2023/12/02 07:04:30;;;;;;;27.83;14.23;;;-2.00;99.90;;;;;;5073757;28;20033;-72
2023/12/02 07:06:55;;;;;;;31.40;14.73;;;-2.10;99.90;;;;;;5073786;28;20024;-72
2023/12/02 07:09:21;;;;;;;29.60;13.75;;;-2.10;99.90;;;;;;5073271;28;20013;-72
2023/12/02 07:11:46;;;;;;;29.10;14.60;;;-2.20;99.90;;;;;;5073311;28;20021;-71
2023/12/02 07:14:12;;;;;;;30.63;15.45;;;-2.30;99.90;;;;;;5073734;28;20021;-72
2023/12/02 07:16:37;;;;;;;30.83;14.07;;;-2.40;99.90;;;;;;5073707;28;20033;-71
2023/12/02 07:19:04;;;;;;;30.38;15.30;;;-2.40;99.90;;;;;;5073760;28;20067;-71
2023/12/02 07:21:29;;;;;;;29.80;15.10;;;-2.40;99.90;;;;;;5073794;28;20021;-71
2023/12/02 07:23:55;;;;;;;35.78;15.02;;;-1.90;99.90;;;;;;5073406;28;20402;-71
2023/12/02 07:26:20;;;;;;;29.05;14.68;;;-2.80;99.90;;;;;;5073257;28;20021;-71
2023/12/02 07:28:46;;;;;;;35.47;16.67;;;-2.50;99.90;;;;;;5073204;28;20041;-71
2023/12/02 07:31:13;;;;;;;37.83;17.00;;;-2.50;99.90;;;;;;5073565;28;20036;-71
2023/12/02 07:33:38;;;;;;;37.95;17.42;;;-2.50;99.90;;;;;;5073135;28;20115;-72
2023/12/02 07:36:04;;;;;;;36.13;16.48;;;-2.50;99.90;;;;;;5073600;28;20140;-72
2023/12/02 07:38:30;;;;;;;33.78;15.85;;;-2.50;99.90;;;;;;5073494;28;20025;-71
2023/12/02 07:40:55;;;;;;;31.33;14.43;;;-2.40;99.90;;;;;;5073267;28;20032;-71
2023/12/02 07:43:21;;;;;;;33.05;15.43;;;-2.40;99.90;;;;;;5073013;28;20048;-71
2023/12/02 07:45:46;;;;;;;30.88;15.60;;;-2.30;99.90;;;;;;5073301;28;20074;-71
2023/12/02 07:48:12;;;;;;;34.63;15.88;;;-2.30;99.90;;;;;;5073401;28;20020;-72
2023/12/02 07:50:38;;;;;;;29.20;15.07;;;-2.10;99.90;;;;;;5073418;28;20035;-71
2023/12/02 07:53:03;;;;;;;30.08;15.40;;;-1.90;99.90;;;;;;5073380;28;20037;-71
2023/12/02 07:55:29;;;;;;;30.13;14.50;;;-1.60;99.90;;;;;;5073294;28;20035;-71
2023/12/02 07:57:54;;;;;;;31.40;14.57;;;-1.20;99.90;;;;;;5073131;28;20394;-71
2023/12/02 08:00:20;;;;;;;28.80;14.40;;;-0.70;94.90;;;;;;5075854;28;20036;-71
2023/12/02 08:02:46;;;;;;;26.25;13.80;;;-0.50;32.70;;;;;;5076845;28;20029;-72
2023/12/02 08:05:11;;;;;;;23.77;12.80;;;-0.50;26.20;;;;;;5077250;28;20059;-71
2023/12/02 08:07:37;;;;;;;27.17;14.60;;;-0.70;13.30;;;;;;5077235;28;20029;-70
2023/12/02 08:10:03;;;;;;;25.52;13.02;;;-0.80;16.50;;;;;;5077303;28;20436;-72
2023/12/02 08:12:28;;;;;;;28.08;14.77;;;-0.90;29.00;;;;;;5077133;28;20497;-71
2023/12/02 08:14:54;;;;;;;28.05;13.75;;;-1.00;32.40;;;;;;5077055;28;20036;-71
2023/12/02 08:17:19;;;;;;;27.00;13.88;;;-1.20;38.50;;;;;;5076970;28;20029;-72
2023/12/02 08:19:45;;;;;;;28.60;14.70;;;-1.20;44.30;;;;;;5076565;28;20025;-71
2023/12/02 08:22:11;;;;;;;25.50;14.20;;;-1.10;44.10;;;;;;5077032;28;20030;-71
2023/12/02 08:24:42;;;;;;;28.55;14.57;;;-1.10;50.60;;;;;;5076627;28;20021;-71
2023/12/02 08:27:08;;;;;;;27.33;14.57;;;-1.00;41.50;;;;;;5076859;28;20017;-72
2023/12/02 08:29:34;;;;;;;27.25;14.27;;;-1.00;37.30;;;;;;5076813;28;20108;-72
2023/12/02 08:32:00;;;;;;;27.02;13.55;;;-0.60;36.50;;;;;;5076973;28;20056;-72
2023/12/02 08:34:25;;;;;;;25.92;14.10;;;-0.10;9.80;;;;;;5076708;28;20390;-72
2023/12/02 08:36:50;;;;;;;24.02;12.85;;;0.10;1.00;;;;;;5076547;28;20029;-70
2023/12/02 08:39:17;;;;;;;22.88;12.10;;;0.50;1.00;;;;;;5076101;28;20067;-72
2023/12/02 08:41:42;;;;;;;24.00;13.02;;;0.60;1.00;;;;;;5076617;28;20541;-70
2023/12/02 08:44:08;;;;;;;24.15;12.82;;;1.10;99.90;;;;;;5076120;28;20138;-70
2023/12/02 08:46:34;;;;;;;21.95;13.00;;;1.30;99.90;;;;;;5076541;28;20033;-70
2023/12/02 08:49:00;;;;;;;23.50;12.98;;;1.50;99.90;;;;;;5076693;28;20033;-71
2023/12/02 08:51:26;;;;;;;22.73;12.63;;;1.50;99.90;;;;;;5076302;28;20017;-70
2023/12/02 08:54:01;;;;;;;23.73;13.63;;;1.50;99.90;;;;;;5075983;28;20034;-70
2023/12/02 08:56:27;;;;;;;26.92;13.80;;;1.20;99.90;;;;;;5076239;28;20115;-70
2023/12/02 08:58:53;;;;;;;24.88;14.00;;;0.90;99.90;;;;;;5076231;28;20028;-70
2023/12/02 09:01:19;;;;;;;26.75;13.85;;;1.00;1.00;;;;;;5076191;28;20390;-70
2023/12/02 09:03:44;;;;;;;24.63;13.90;;;1.30;99.90;;;;;;5075847;28;20024;-71
2023/12/02 09:06:10;;;;;;;21.60;13.10;;;1.70;99.90;;;;;;5075925;28;20059;-71
2023/12/02 09:08:35;;;;;;;22.20;12.02;;;1.90;38.90;;;;;;5075747;28;20017;-72
2023/12/02 09:11:02;;;;;;;23.98;13.18;;;2.50;99.90;;;;;;5075476;28;20127;-71
2023/12/02 09:16:11;;;;;;;22.77;13.10;;;3.00;99.90;;;;;;5173410;27;20325;-71
2023/12/02 09:18:37;;;;;;;20.92;12.98;;;3.40;7.40;;;;;;5152612;27;20045;-71
2023/12/02 09:21:04;;;;;;;23.63;14.57;;;2.60;1.00;;;;;;5152583;27;20030;-71
2023/12/02 09:23:29;;;;;;;21.95;13.60;;;3.30;1.00;;;;;;5151888;27;20027;-71
2023/12/02 09:26:02;;;;;;;21.92;13.30;;;3.50;1.00;;;;;;5151838;27;20389;-71
2023/12/02 09:28:29;;;;;;;23.10;13.25;;;3.90;1.00;;;;;;5152167;27;20492;-71
2023/12/02 09:30:57;;;;;;;24.52;15.00;;;4.10;1.00;;;;;;5151692;27;20022;-71
2023/12/02 09:33:23;;;;;;;23.38;14.15;;;3.10;1.00;;;;;;5152194;27;20507;-71
2023/12/02 09:35:58;;;;;;;24.50;14.98;;;2.50;99.90;;;;;;5151822;27;20023;-71
2023/12/02 09:38:25;;;;;;;26.13;15.05;;;2.20;99.90;;;;;;5151610;27;20485;-71
2023/12/02 09:41:16;;;;;;;28.10;15.55;;;2.00;99.90;;;;;;5151431;27;20023;-71
2023/12/02 09:43:55;;;;;;;27.60;15.55;;;1.80;99.90;;;;;;5151825;27;20468;-71
2023/12/02 09:46:33;;;;;;;29.50;16.15;;;1.90;99.90;;;;;;5151763;27;20452;-71
2023/12/02 09:49:38;;;;;;;27.02;14.52;;;1.70;99.90;;;;;;5151773;27;20023;-71
2023/12/02 09:52:30;;;;;;;29.67;15.63;;;1.70;99.90;;;;;;5151207;27;20133;-71
2023/12/02 09:55:19;;;;;;;27.13;15.13;;;1.60;99.90;;;;;;5151366;27;20035;-71
2023/12/02 09:57:59;;;;;;;27.48;14.55;;;2.30;72.10;;;;;;5151244;27;20031;-71
2023/12/02 10:00:38;;;;;;;26.70;14.35;;;2.50;99.90;;;;;;5151632;27;20019;-71
2023/12/02 10:03:27;;;;;;;24.92;14.05;;;2.70;99.90;;;;;;5151678;27;20072;-71
2023/12/02 10:06:12;;;;;;;20.27;12.50;;;3.10;99.90;;;;;;5151454;27;20110;-71
2023/12/02 10:08:54;;;;;;;23.45;13.77;;;3.40;1.00;;;;;;5151553;27;20031;-71
2023/12/02 10:11:45;;;;;;;25.95;14.27;;;3.20;99.90;;;;;;5151384;27;20506;-71
2023/12/02 10:14:11;;;;;;;26.30;14.25;;;2.50;1.00;;;;;;5150677;27;20085;-71
2023/12/02 10:16:39;;;;;;;28.13;15.07;;;2.40;99.90;;;;;;5151312;27;20019;-71
2023/12/02 10:19:10;;;;;;;25.02;14.65;;;2.30;84.40;;;;;;5151305;27;20087;-71
2023/12/02 10:21:40;;;;;;;26.48;14.95;;;1.90;1.00;;;;;;5150901;27;20019;-71
2023/12/02 10:24:10;;;;;;;29.50;15.10;;;1.80;99.90;;;;;;5151212;27;20505;-71
2023/12/02 10:26:58;;;;;;;29.80;15.40;;;1.90;99.90;;;;;;5142191;27;20019;-73
2023/12/02 10:29:52;;;;;;;26.77;13.70;;;1.50;99.90;;;;;;5137200;27;20503;-73
2023/12/02 10:32:38;;;;;;;32.53;14.63;;;1.20;99.90;;;;;;5136727;27;20023;-74
2023/12/02 10:35:16;;;;;;;26.98;14.38;;;1.50;99.90;;;;;;5137122;27;20076;-71
2023/12/02 10:37:43;;;;;;;27.73;14.98;;;1.90;34.50;;;;;;5137070;27;20027;-71
2023/12/02 10:40:12;;;;;;;27.73;14.55;;;1.50;99.90;;;;;;5137134;27;20117;-74
2023/12/02 10:43:05;;;;;;;26.42;14.88;;;1.50;99.90;;;;;;5136952;27;20383;-74
2023/12/02 10:45:33;;;;;;;29.08;14.15;;;1.50;99.90;;;;;;5136504;27;20410;-72
2023/12/02 10:48:00;;;;;;;28.48;14.95;;;1.60;99.90;;;;;;5136944;27;20043;-74
2023/12/02 10:50:27;;;;;;;27.65;14.77;;;1.50;99.90;;;;;;5136820;27;20392;-74
2023/12/02 10:53:09;;;;;;;30.60;15.95;;;1.40;99.90;;;;;;5136396;27;20503;-71
2023/12/02 10:55:37;;;;;;;29.17;14.52;;;1.40;99.90;;;;;;5136441;27;20027;-72
2023/12/02 10:58:05;;;;;;;31.73;16.13;;;1.20;99.90;;;;;;5136220;27;20043;-72
2023/12/02 11:00:34;;;;;;;29.65;13.93;;;1.00;1.00;;;;;;5136627;27;20480;-73
2023/12/02 11:03:06;;;;;;;30.38;15.35;;;1.10;1.00;;;;;;5136473;27;20034;-72
2023/12/02 11:05:42;;;;;;;29.23;15.05;;;1.00;1.00;;;;;;5136510;27;20038;-72
2023/12/02 11:08:17;;;;;;;32.55;14.93;;;1.00;1.00;;;;;;5136570;27;20384;-72
2023/12/02 11:10:49;;;;;;;31.83;15.68;;;0.80;1.00;;;;;;5136513;27;20034;-72
2023/12/02 11:13:19;;;;;;;30.35;14.93;;;0.70;1.00;;;;;;5136239;27;20027;-72
2023/12/02 11:16:19;;;;;;;29.25;14.60;;;1.10;1.00;;;;;;5135649;27;20043;-73
2023/12/02 11:19:13;;;;;;;30.98;15.57;;;1.30;1.00;;;;;;5136331;27;20162;-73
2023/12/02 11:22:18;;;;;;;31.60;15.38;;;1.50;1.00;;;;;;5136149;27;20055;-72
2023/12/02 11:25:13;;;;;;;30.05;16.40;;;1.30;1.00;;;;;;5135919;27;20388;-72
2023/12/02 11:28:03;;;;;;;33.65;15.52;;;1.30;1.00;;;;;;5136040;27;20046;-72
2023/12/02 11:30:56;;;;;;;31.65;15.75;;;1.00;1.00;;;;;;5135965;27;20495;-73
2023/12/02 11:34:02;;;;;;;31.45;15.82;;;0.90;1.00;;;;;;5136052;27;20384;-72
2023/12/02 11:36:54;;;;;;;32.00;15.05;;;1.10;1.00;;;;;;5135728;27;20415;-72
2023/12/02 11:39:36;;;;;;;32.50;15.75;;;1.60;1.00;;;;;;5134530;27;20380;-73
2023/12/02 11:42:24;;;;;;;32.30;16.45;;;1.40;1.00;;;;;;5135437;27;20030;-72
2023/12/02 11:45:17;;;;;;;28.63;14.48;;;1.50;1.00;;;;;;5136057;27;20023;-72
2023/12/02 11:48:20;;;;;;;33.63;15.95;;;1.30;1.00;;;;;;5135635;27;20127;-72
2023/12/02 11:51:10;;;;;;;31.65;16.30;;;1.30;1.00;;;;;;5135421;27;20373;-72
2023/12/02 11:53:56;;;;;;;31.15;15.40;;;1.10;1.00;;;;;;5135615;27;20031;-72
2023/12/02 11:56:23;;;;;;;35.65;16.95;;;1.40;1.00;;;;;;5135494;27;20114;-73
2023/12/02 11:58:54;;;;;;;33.88;17.55;;;1.50;1.00;;;;;;5135535;27;20023;-73
2023/12/02 12:04:25;;;;;;;33.67;15.98;;;1.80;1.00;;;;;;5070659;28;20387;-73
2023/12/02 12:07:18;;;;;;;33.47;16.52;;;1.90;1.00;;;;;;5070648;28;20025;-73
2023/12/02 12:10:07;;;;;;;29.52;14.65;;;1.80;1.00;;;;;;5070190;28;20021;-73
2023/12/02 12:12:36;;;;;;;34.65;16.65;;;1.60;1.00;;;;;;5070518;28;20475;-72
2023/12/02 12:15:03;;;;;;;32.47;16.38;;;1.70;1.00;;;;;;5070021;28;20059;-73
2023/12/02 12:17:29;;;;;;;36.30;17.05;;;1.60;1.00;;;;;;5070472;28;20033;-73
2023/12/02 12:19:59;;;;;;;32.97;17.05;;;1.40;1.00;;;;;;5070396;28;20490;-72
2023/12/02 12:22:26;;;;;;;36.80;16.35;;;1.00;1.00;;;;;;5070231;28;20029;-73
2023/12/02 12:24:52;;;;;;;35.63;17.70;;;1.00;1.00;;;;;;5069920;28;20025;-73
2023/12/02 12:27:17;;;;;;;34.97;17.05;;;1.00;1.00;;;;;;5070283;28;20390;-72
2023/12/02 12:29:52;;;;;;;31.15;14.40;;;1.00;1.00;;;;;;5070205;28;20032;-73
2023/12/02 12:32:17;;;;;;;34.40;16.00;;;1.10;1.00;;;;;;5070141;28;20482;-72
2023/12/02 12:34:43;;;;;;;29.75;15.48;;;1.20;1.00;;;;;;5070196;28;20033;-72
2023/12/02 12:37:15;;;;;;;30.38;15.02;;;1.30;1.00;;;;;;5070078;28;20043;-72
2023/12/02 12:39:40;;;;;;;29.70;14.95;;;1.30;1.00;;;;;;5069697;28;20035;-73
2023/12/02 12:42:08;;;;;;;30.17;15.38;;;1.40;1.00;;;;;;5069567;28;20394;-73
2023/12/02 12:44:33;;;;;;;33.22;14.73;;;1.10;1.00;;;;;;5069513;28;20017;-73